LIRQ Airport Information

Runway Information
Runway 05 Length 5741 ft width 148 ft Elevation 123 ft Threshold 492 ft Heading 48
Runway 23 Length 5741 ft Width 148 ft Elevation 132 ft Threshold 2287 ft Heading 228
Airport Frequencies
Type APP Name APP Frequency 126.075 MHZ
Type ATIS Name ATIS Frequency 129.35 MHZ
Type TWR Name FIRENZE TW Frequency 118.3 MHZ
Airport Navaids
Type VOR-DME Name Peretola Frequency 112500 KHZ
Airport Weather Information & NOTAM
ADDS - METARS form results

(1805 UTC 07 December 2022)
Data provider http://aviationweather.gov/metar/data/
 
METAR text: LIRQ 071750Z VRB01KT 9999 FEW050 10/09 Q1010
Conditions at: LIRQ (FIRENZE/PERETOLA, IT) observed 1750 UTC 07 December 2022
Temperature: 10.0°C (50°F)
Dewpoint: 9.0°C (48°F) [RH = 93%]
Pressure (altimeter): 29.82 inches Hg (1010.0 mb)
Winds: variable direction winds at 1 MPH (1 knots; 0.5 m/s)
Visibility: 6 or more miles (10+ km)
Ceiling: at least 12,000 feet AGL
Clouds: few clouds at 5000 feet AGL
Weather: no significant weather observed at this time

METAR text: LIRQ 071720Z VRB01KT 9999 FEW050 09/09 Q1010
Conditions at: LIRQ (FIRENZE/PERETOLA, IT) observed 1720 UTC 07 December 2022
Temperature: 9.0°C (48°F)
Dewpoint: 9.0°C (48°F) [RH = 100%]
Pressure (altimeter): 29.82 inches Hg (1010.0 mb)
Winds: variable direction winds at 1 MPH (1 knots; 0.5 m/s)
Visibility: 6 or more miles (10+ km)
Ceiling: at least 12,000 feet AGL
Clouds: few clouds at 5000 feet AGL
Weather: no significant weather observed at this time

Forecast for: LIRQ (FIRENZE/PERETOLA, IT)
Text: TAF LIRQ 071700Z 0718/0818 VRB05KT 7000 BKN050
Forecast period: 1800 UTC 07 December 2022 to 1800 UTC 08 December 2022
Forecast type: FROM: standard forecast or significant change
Winds: variable direction winds at 6 MPH (5 knots; 2.6 m/s)
Visibility: 4 miles (7 km)
Ceiling: 5000 feet AGL
Clouds: broken clouds at 5000 feet AGL
Weather: no significant weather forecast for this period